createdAt,value
2019-04-30T00:01:17.073Z,13.70
2019-04-30T00:03:42.859Z,13.60
2019-04-30T00:06:09.285Z,13.50
2019-04-30T00:08:39.003Z,13.50
2019-04-30T00:11:05.247Z,13.50
2019-04-30T00:13:31.789Z,13.40
2019-04-30T00:16:01.610Z,13.40
2019-04-30T00:18:30.763Z,13.40
2019-04-30T00:20:55.475Z,13.40
2019-04-30T00:23:22.677Z,13.40
2019-04-30T00:25:50.109Z,13.40
2019-04-30T00:28:16.401Z,13.40
2019-04-30T00:30:44.006Z,13.30
2019-04-30T00:33:15.249Z,13.30
2019-04-30T00:35:39.197Z,13.20
2019-04-30T00:38:05.430Z,13.10
2019-04-30T00:40:31.945Z,13.20
2019-04-30T00:43:00.109Z,13.10
2019-04-30T00:45:26.294Z,13.10
2019-04-30T00:47:52.508Z,13.10
2019-04-30T00:50:18.853Z,13.10
2019-04-30T00:52:45.768Z,13.10
2019-04-30T00:55:12.775Z,13.00
2019-04-30T00:57:43.577Z,13.00
2019-04-30T01:00:08.961Z,13.00
2019-04-30T01:02:46.106Z,12.90
2019-04-30T01:05:15.650Z,12.80
2019-04-30T01:07:48.818Z,12.70
2019-04-30T01:10:12.177Z,12.70
2019-04-30T01:12:46.916Z,12.70
2019-04-30T01:15:11.140Z,12.70
2019-04-30T01:17:35.353Z,12.60
2019-04-30T01:20:03.445Z,12.60
2019-04-30T01:22:32.875Z,12.60
2019-04-30T01:25:02.902Z,12.60
2019-04-30T01:27:28.387Z,12.60
2019-04-30T01:29:54.953Z,12.60
2019-04-30T01:32:21.347Z,12.50
2019-04-30T01:34:49.825Z,12.50
2019-04-30T01:37:15.724Z,12.30
2019-04-30T01:39:42.037Z,12.30
2019-04-30T01:42:11.352Z,12.20
2019-04-30T01:44:36.400Z,12.10
2019-04-30T01:47:02.700Z,12.10
2019-04-30T01:49:32.594Z,12.10
2019-04-30T01:51:58.494Z,12.00
2019-04-30T01:54:25.165Z,12.10
2019-04-30T01:56:59.630Z,12.10
2019-04-30T01:59:29.180Z,12.10
2019-04-30T02:01:58.508Z,12.10
2019-04-30T02:04:24.873Z,12.10
2019-04-30T02:06:51.205Z,12.10
2019-04-30T02:09:18.912Z,12.00
2019-04-30T02:11:45.644Z,12.00
2019-04-30T02:14:11.961Z,11.90
2019-04-30T02:16:39.545Z,11.80
2019-04-30T02:19:06.001Z,11.70
2019-04-30T02:21:33.482Z,11.70
2019-04-30T02:23:59.860Z,11.60
2019-04-30T02:26:26.197Z,11.50
2019-04-30T02:28:52.503Z,11.40
2019-04-30T02:31:22.332Z,11.30
2019-04-30T02:33:50.247Z,11.30
2019-04-30T02:36:21.442Z,11.20
2019-04-30T02:38:52.348Z,11.20
2019-04-30T02:41:20.353Z,11.20
2019-04-30T02:43:49.714Z,11.10
2019-04-30T02:46:19.058Z,11.10
2019-04-30T02:48:49.950Z,11.10
2019-04-30T02:51:19.994Z,11.00
2019-04-30T02:53:51.646Z,11.00
2019-04-30T02:56:20.274Z,10.90
2019-04-30T02:58:50.467Z,10.90
2019-04-30T03:01:16.389Z,10.80
2019-04-30T03:03:42.798Z,10.80
2019-04-30T03:06:11.440Z,10.70
2019-04-30T03:08:37.220Z,10.70
2019-04-30T03:11:03.860Z,10.60
2019-04-30T03:13:30.172Z,10.60
2019-04-30T03:15:59.136Z,10.50
2019-04-30T03:18:26.418Z,10.60
2019-04-30T03:21:03.382Z,10.60
2019-04-30T03:23:29.596Z,10.60
2019-04-30T03:25:56.403Z,10.60
2019-04-30T03:28:22.627Z,10.60
2019-04-30T03:30:51.929Z,10.60
2019-04-30T03:33:17.066Z,10.50
2019-04-30T03:35:48.085Z,10.50
2019-04-30T03:38:11.417Z,10.50
2019-04-30T03:40:40.219Z,10.40
2019-04-30T03:43:06.770Z,10.40
2019-04-30T03:45:32.986Z,10.40
2019-04-30T03:48:00.274Z,10.40
2019-04-30T03:50:32.855Z,10.40
2019-04-30T03:52:54.942Z,10.30
2019-04-30T03:55:25.017Z,10.20
2019-04-30T03:57:51.972Z,10.20
2019-04-30T04:00:20.518Z,10.10
2019-04-30T04:02:46.822Z,10.10
2019-04-30T04:05:20.237Z,10.20
2019-04-30T04:07:52.556Z,10.10
2019-04-30T04:10:19.551Z,10.20
2019-04-30T04:12:46.062Z,10.20
2019-04-30T04:15:12.297Z,10.20
2019-04-30T04:17:39.707Z,10.20
2019-04-30T04:20:06.446Z,10.20
2019-04-30T04:22:32.750Z,10.10
2019-04-30T04:25:00.016Z,10.10
2019-04-30T04:27:29.795Z,9.90
2019-04-30T04:29:54.743Z,9.80
2019-04-30T04:32:24.387Z,9.80
2019-04-30T04:34:50.508Z,9.70
2019-04-30T04:37:19.717Z,9.70
2019-04-30T04:39:45.385Z,9.70
2019-04-30T04:42:11.604Z,9.70
2019-04-30T04:44:39.887Z,9.70
2019-04-30T04:47:05.906Z,9.60
2019-04-30T04:49:32.138Z,9.60
2019-04-30T04:51:59.173Z,9.60
2019-04-30T04:54:25.554Z,9.50
2019-04-30T04:56:54.845Z,9.50
2019-04-30T04:59:20.170Z,9.40
2019-04-30T05:01:48.818Z,9.40
2019-04-30T05:04:14.640Z,9.40
2019-04-30T05:06:40.858Z,9.40
2019-04-30T05:09:07.079Z,9.40
2019-04-30T05:11:33.402Z,9.50
2019-04-30T05:13:59.717Z,9.60
2019-04-30T05:16:25.941Z,9.60
2019-04-30T05:18:52.202Z,9.70
2019-04-30T05:21:18.815Z,9.80
2019-04-30T05:23:45.349Z,9.90
2019-04-30T05:26:11.582Z,9.90
2019-04-30T05:28:39.377Z,10.10
2019-04-30T05:31:08.676Z,10.40
2019-04-30T05:33:34.991Z,10.70
2019-04-30T05:36:01.206Z,11.10
2019-04-30T05:38:28.687Z,11.40
2019-04-30T05:40:55.565Z,11.80
2019-04-30T05:43:21.859Z,12.10
2019-04-30T05:45:49.155Z,12.50
2019-04-30T05:48:15.814Z,12.80
2019-04-30T05:50:42.034Z,13.00
2019-04-30T05:53:09.002Z,13.30
2019-04-30T05:55:35.388Z,13.50
2019-04-30T05:58:01.634Z,13.80
2019-04-30T06:00:30.256Z,13.90
2019-04-30T06:02:56.268Z,14.00
2019-04-30T06:05:22.981Z,14.10
2019-04-30T06:07:51.883Z,14.00
2019-04-30T06:10:25.049Z,14.10
2019-04-30T06:12:53.275Z,14.20
2019-04-30T06:15:28.955Z,14.10
2019-04-30T06:18:01.120Z,14.00
2019-04-30T06:20:24.074Z,14.10
2019-04-30T06:22:52.255Z,14.30
2019-04-30T06:25:30.548Z,14.50
2019-04-30T06:27:48.743Z,14.60
2019-04-30T06:30:15.812Z,14.60
2019-04-30T06:32:42.333Z,14.60
2019-04-30T06:35:09.276Z,14.50
2019-04-30T06:37:35.581Z,14.60
2019-04-30T06:40:02.202Z,14.60
2019-04-30T06:42:29.705Z,14.70
2019-04-30T06:44:56.633Z,14.80
2019-04-30T06:47:32.720Z,14.80
2019-04-30T06:49:52.179Z,14.90
2019-04-30T06:52:23.027Z,15.00
2019-04-30T06:54:46.621Z,15.00
2019-04-30T06:57:12.843Z,15.20
2019-04-30T06:59:39.604Z,15.40
2019-04-30T07:02:06.086Z,15.60
2019-04-30T07:04:32.314Z,15.80
2019-04-30T07:06:59.081Z,16.00
2019-04-30T07:09:51.718Z,16.10
2019-04-30T07:12:25.466Z,15.90
2019-04-30T07:14:43.010Z,15.80
2019-04-30T07:17:09.540Z,15.60
2019-04-30T07:19:51.013Z,15.50
2019-04-30T07:22:04.061Z,15.50
2019-04-30T07:24:30.289Z,15.50
2019-04-30T07:27:00.959Z,15.50
2019-04-30T07:29:24.743Z,15.50
2019-04-30T07:31:51.660Z,15.50
2019-04-30T07:34:19.626Z,15.40
2019-04-30T07:36:50.856Z,15.30
2019-04-30T07:39:14.201Z,15.20
2019-04-30T07:41:40.478Z,15.20
2019-04-30T07:44:06.749Z,15.20
2019-04-30T07:46:35.073Z,15.10
2019-04-30T07:49:01.095Z,15.10
2019-04-30T07:51:30.896Z,15.10
2019-04-30T07:53:55.442Z,15.10
2019-04-30T07:56:28.051Z,15.30
2019-04-30T07:58:50.458Z,15.40
2019-04-30T08:01:19.406Z,15.50
2019-04-30T08:03:53.308Z,15.80
2019-04-30T08:06:22.351Z,16.00
2019-04-30T08:08:50.639Z,16.20
2019-04-30T08:11:23.850Z,16.50
2019-04-30T08:13:45.001Z,16.60
2019-04-30T08:16:11.677Z,16.90
2019-04-30T08:18:39.217Z,17.30
2019-04-30T08:21:05.578Z,17.60
2019-04-30T08:23:36.868Z,17.80
2019-04-30T08:25:59.917Z,18.00
2019-04-30T08:28:30.104Z,18.20
2019-04-30T08:30:55.397Z,18.30
2019-04-30T08:33:21.668Z,18.30
2019-04-30T08:35:49.732Z,18.30
2019-04-30T08:38:16.013Z,18.40
2019-04-30T08:40:53.388Z,18.60
2019-04-30T08:43:10.225Z,18.70
2019-04-30T08:45:38.474Z,18.90
2019-04-30T08:48:04.549Z,19.10
2019-04-30T08:50:31.855Z,19.30
2019-04-30T08:52:59.698Z,19.50
2019-04-30T08:55:26.185Z,19.70
2019-04-30T08:57:52.493Z,19.90
2019-04-30T09:00:19.509Z,20.10
2019-04-30T09:02:46.050Z,20.30
2019-04-30T09:05:30.945Z,20.40
2019-04-30T09:07:57.277Z,20.50
2019-04-30T09:10:23.494Z,20.60
2019-04-30T09:12:51.951Z,20.60
2019-04-30T09:15:18.875Z,20.60
2019-04-30T09:17:58.138Z,20.70
2019-04-30T09:20:13.317Z,20.80
2019-04-30T09:22:40.721Z,20.80
2019-04-30T09:25:09.220Z,20.80
2019-04-30T09:27:35.357Z,20.90
2019-04-30T09:30:03.780Z,21.00
2019-04-30T09:32:31.305Z,21.20
2019-04-30T09:34:58.708Z,21.40
2019-04-30T09:37:25.156Z,21.50
2019-04-30T09:39:51.410Z,21.70
2019-04-30T09:42:19.631Z,21.70
2019-04-30T09:44:45.713Z,21.80
2019-04-30T09:47:11.925Z,21.70
2019-04-30T09:49:38.811Z,21.70
2019-04-30T09:52:08.851Z,21.70
2019-04-30T09:54:35.296Z,21.60
2019-04-30T09:57:01.529Z,21.50
2019-04-30T09:59:29.092Z,21.40
2019-04-30T10:01:55.680Z,21.40
2019-04-30T10:04:22.325Z,21.40
2019-04-30T10:06:50.161Z,21.40
2019-04-30T10:09:19.402Z,21.50
2019-04-30T10:12:04.532Z,21.70
2019-04-30T10:14:30.954Z,21.90
2019-04-30T10:16:59.546Z,22.10
2019-04-30T10:19:25.909Z,22.10
2019-04-30T10:21:52.119Z,22.10
2019-04-30T10:24:19.635Z,22.30
2019-04-30T10:26:46.072Z,22.30
2019-04-30T10:29:14.244Z,22.20
2019-04-30T10:31:40.408Z,22.00
2019-04-30T10:34:06.741Z,21.90
2019-04-30T10:36:33.161Z,21.80
2019-04-30T10:38:59.637Z,21.80
2019-04-30T10:41:26.120Z,21.70
2019-04-30T10:43:52.417Z,21.60
2019-04-30T10:46:19.137Z,21.60
2019-04-30T10:48:45.372Z,21.60
2019-04-30T10:51:11.694Z,21.60
2019-04-30T10:53:37.929Z,21.70
2019-04-30T10:56:04.263Z,21.80
2019-04-30T10:58:30.593Z,21.90
2019-04-30T11:00:56.912Z,22.10
2019-04-30T11:03:24.620Z,22.40
2019-04-30T11:05:50.898Z,22.40
2019-04-30T11:08:17.252Z,22.40
2019-04-30T11:10:43.581Z,22.20
2019-04-30T11:13:09.794Z,22.10
2019-04-30T11:15:36.123Z,22.00
2019-04-30T11:18:02.762Z,21.90
2019-04-30T11:20:29.805Z,21.90
2019-04-30T11:22:56.423Z,21.70
2019-04-30T11:25:23.569Z,21.60
2019-04-30T11:27:51.248Z,21.30
2019-04-30T11:30:23.743Z,21.10
2019-04-30T11:32:47.508Z,21.10
2019-04-30T11:35:14.093Z,21.10
2019-04-30T11:37:40.414Z,21.10
2019-04-30T11:40:08.047Z,21.20
2019-04-30T11:42:34.573Z,21.40
2019-04-30T11:45:00.789Z,21.50
2019-04-30T11:47:28.844Z,21.70
2019-04-30T11:49:55.037Z,21.90
2019-04-30T11:52:21.758Z,22.00
2019-04-30T11:54:51.578Z,22.10
2019-04-30T11:57:16.209Z,22.10
2019-04-30T11:59:42.591Z,22.20
2019-04-30T12:02:14.065Z,22.20
2019-04-30T12:04:40.290Z,22.20
2019-04-30T12:07:11.150Z,22.20
2019-04-30T12:09:51.207Z,22.20
2019-04-30T12:12:18.976Z,22.40
2019-04-30T12:14:45.313Z,22.40
2019-04-30T12:17:11.534Z,22.40
2019-04-30T12:19:38.839Z,22.30
2019-04-30T12:22:05.173Z,22.30
2019-04-30T12:24:31.401Z,22.30
2019-04-30T12:26:57.618Z,22.40
2019-04-30T12:29:23.829Z,22.40
2019-04-30T12:31:50.059Z,22.30
2019-04-30T12:34:16.273Z,22.20
2019-04-30T12:36:42.486Z,22.00
2019-04-30T12:39:08.978Z,22.10
2019-04-30T12:41:35.229Z,22.00
2019-04-30T12:44:01.453Z,21.80
2019-04-30T12:46:28.893Z,21.80
2019-04-30T12:49:06.110Z,21.70
2019-04-30T12:51:45.310Z,21.50
2019-04-30T12:54:04.688Z,21.60
2019-04-30T12:56:41.789Z,21.60
2019-04-30T12:59:08.093Z,21.60
2019-04-30T13:01:34.378Z,21.60
2019-04-30T13:04:01.440Z,21.40
2019-04-30T13:06:28.444Z,21.30
2019-04-30T13:08:55.551Z,21.20
2019-04-30T13:11:23.158Z,21.20
2019-04-30T13:13:50.861Z,21.20
2019-04-30T13:16:19.311Z,21.30
2019-04-30T13:18:45.624Z,21.20
2019-04-30T13:21:11.845Z,21.30
2019-04-30T13:23:38.069Z,21.20
2019-04-30T13:26:04.310Z,21.20
2019-04-30T13:28:38.525Z,21.20
2019-04-30T13:31:05.815Z,21.20
2019-04-30T13:33:38.897Z,21.10
2019-04-30T13:36:05.013Z,21.10
2019-04-30T13:38:44.677Z,21.20
2019-04-30T13:41:03.253Z,21.20
2019-04-30T13:43:48.655Z,21.10
2019-04-30T13:46:14.953Z,21.10
2019-04-30T13:48:41.171Z,21.10
2019-04-30T13:51:08.856Z,21.10
2019-04-30T13:53:35.135Z,21.00
2019-04-30T13:56:01.406Z,21.00
2019-04-30T13:58:27.761Z,21.00
2019-04-30T14:00:54.498Z,21.00
2019-04-30T14:03:25.916Z,20.90
2019-04-30T14:05:52.326Z,20.80
2019-04-30T14:08:26.589Z,20.70
2019-04-30T14:10:53.365Z,20.80
2019-04-30T14:13:20.436Z,20.80
2019-04-30T14:15:47.721Z,20.90
2019-04-30T14:18:14.089Z,20.90
2019-04-30T14:20:40.421Z,20.90
2019-04-30T14:23:08.583Z,20.90
2019-04-30T14:25:34.801Z,20.90
2019-04-30T14:28:01.170Z,20.80
2019-04-30T14:30:29.240Z,20.80
2019-04-30T14:32:55.657Z,20.70
2019-04-30T14:35:21.889Z,20.70
2019-04-30T14:37:49.609Z,20.60
2019-04-30T14:40:19.792Z,20.40
2019-04-30T14:42:50.071Z,20.30
2019-04-30T14:45:22.047Z,20.40
2019-04-30T14:47:54.721Z,20.30
2019-04-30T14:50:23.493Z,20.30
2019-04-30T14:52:57.606Z,20.30
2019-04-30T14:55:25.750Z,20.20
2019-04-30T14:57:59.760Z,20.10
2019-04-30T15:00:44.916Z,20.00
2019-04-30T15:03:16.552Z,19.80
2019-04-30T15:05:48.787Z,19.80
2019-04-30T15:08:11.376Z,19.70
2019-04-30T15:10:38.001Z,19.60
2019-04-30T15:13:04.321Z,19.60
2019-04-30T15:15:30.553Z,19.50
2019-04-30T15:17:56.776Z,19.40
2019-04-30T15:20:23.091Z,19.40
2019-04-30T15:23:08.797Z,19.40
2019-04-30T15:25:35.666Z,19.40
2019-04-30T15:28:01.882Z,19.40
2019-04-30T15:30:28.888Z,19.40
2019-04-30T15:33:16.041Z,19.30
2019-04-30T15:35:42.278Z,19.40
2019-04-30T15:38:09.467Z,19.30
2019-04-30T15:40:35.938Z,19.30
2019-04-30T15:43:04.172Z,19.30
2019-04-30T15:45:30.269Z,19.30
2019-04-30T15:47:58.418Z,19.30
2019-04-30T15:50:24.511Z,19.40
2019-04-30T15:52:50.753Z,19.50
2019-04-30T15:55:18.890Z,19.60
2019-04-30T15:57:55.853Z,19.70
2019-04-30T16:00:23.087Z,19.80
2019-04-30T16:02:59.557Z,19.80
2019-04-30T16:05:29.805Z,19.80
2019-04-30T16:08:08.788Z,19.80
2019-04-30T16:10:39.748Z,19.90
2019-04-30T16:13:12.029Z,19.90
2019-04-30T16:15:38.610Z,19.90
2019-04-30T16:18:05.010Z,20.00
2019-04-30T16:20:31.269Z,20.00
2019-04-30T16:22:59.067Z,20.00
2019-04-30T16:25:25.436Z,20.10
2019-04-30T16:27:51.915Z,20.20
2019-04-30T16:30:19.565Z,20.20
2019-04-30T16:32:45.877Z,20.30
2019-04-30T16:35:12.323Z,20.30
2019-04-30T16:37:38.806Z,20.30
2019-04-30T16:40:05.865Z,20.30
2019-04-30T16:42:33.513Z,20.30
2019-04-30T16:45:00.803Z,20.20
2019-04-30T16:47:27.191Z,20.10
2019-04-30T16:49:53.461Z,20.20
2019-04-30T16:52:19.765Z,20.10
2019-04-30T16:54:45.993Z,20.00
2019-04-30T16:57:12.361Z,20.00
2019-04-30T16:59:40.594Z,19.90
2019-04-30T17:02:06.893Z,19.90
2019-04-30T17:04:35.045Z,19.80
2019-04-30T17:07:12.345Z,19.80
2019-04-30T17:09:51.010Z,19.80
2019-04-30T17:12:19.753Z,19.80
2019-04-30T17:14:49.206Z,19.80
2019-04-30T17:17:15.602Z,19.70
2019-04-30T17:19:41.831Z,19.70
2019-04-30T17:22:08.069Z,19.60
2019-04-30T17:24:34.403Z,19.50
2019-04-30T17:27:01.425Z,19.50
2019-04-30T17:29:27.653Z,19.50
2019-04-30T17:31:53.885Z,19.40
2019-04-30T17:34:20.155Z,19.40
2019-04-30T17:36:46.398Z,19.30
2019-04-30T17:39:14.754Z,19.30
2019-04-30T17:41:41.634Z,19.20
2019-04-30T17:44:08.897Z,19.10
2019-04-30T17:46:35.196Z,19.00
2019-04-30T17:49:01.417Z,18.90
2019-04-30T17:51:27.638Z,18.80
2019-04-30T17:54:01.673Z,18.80
2019-04-30T17:56:27.989Z,18.70
2019-04-30T17:58:54.205Z,18.70
2019-04-30T18:01:20.641Z,18.70
2019-04-30T18:03:48.698Z,18.60
2019-04-30T18:06:15.157Z,18.60
2019-04-30T18:08:41.417Z,18.50
2019-04-30T18:11:07.930Z,18.50
2019-04-30T18:13:34.226Z,18.40
2019-04-30T18:16:00.522Z,18.30
2019-04-30T18:18:28.741Z,18.30
2019-04-30T18:21:13.385Z,18.10
2019-04-30T18:23:41.509Z,18.10
2019-04-30T18:26:12.538Z,18.00
2019-04-30T18:28:38.781Z,18.00
2019-04-30T18:31:05.301Z,17.90
2019-04-30T18:33:31.525Z,17.90
2019-04-30T18:35:59.590Z,17.90
2019-04-30T18:38:26.218Z,17.80
2019-04-30T18:40:52.545Z,17.80
2019-04-30T18:43:20.544Z,17.70
2019-04-30T18:45:47.037Z,17.60
2019-04-30T18:48:13.365Z,17.50
2019-04-30T18:50:39.611Z,17.40
2019-04-30T18:53:08.680Z,17.30
2019-04-30T18:55:35.041Z,17.30
2019-04-30T18:58:01.586Z,17.10
2019-04-30T19:00:30.909Z,17.10
2019-04-30T19:02:58.650Z,17.10
2019-04-30T19:05:29.032Z,17.00
2019-04-30T19:07:59.119Z,16.90
2019-04-30T19:10:30.233Z,16.80
2019-04-30T19:13:01.283Z,16.70
2019-04-30T19:16:14.687Z,16.60
2019-04-30T19:18:19.149Z,16.50
2019-04-30T19:20:47.285Z,16.40
2019-04-30T19:23:13.520Z,16.40
2019-04-30T19:25:39.749Z,16.30
2019-04-30T19:28:12.074Z,16.30
2019-04-30T19:30:33.981Z,16.30
2019-04-30T19:33:00.221Z,16.30
2019-04-30T19:35:26.497Z,16.30
2019-04-30T19:37:52.721Z,16.20
2019-04-30T19:40:19.130Z,16.20
2019-04-30T19:42:48.260Z,16.10
2019-04-30T19:45:14.105Z,16.10
2019-04-30T19:47:40.335Z,16.00
2019-04-30T19:50:07.010Z,16.00
2019-04-30T19:52:33.341Z,15.90
2019-04-30T19:54:59.652Z,15.90
2019-04-30T19:57:25.893Z,15.80
2019-04-30T19:59:52.129Z,15.70
2019-04-30T20:02:19.127Z,15.70
2019-04-30T20:04:46.609Z,15.70
2019-04-30T20:07:12.925Z,15.60
2019-04-30T20:09:39.161Z,15.50
2019-04-30T20:12:05.394Z,15.40
2019-04-30T20:14:31.620Z,15.30
2019-04-30T20:16:59.008Z,15.30
2019-04-30T20:19:25.517Z,15.20
2019-04-30T20:21:53.961Z,15.10
2019-04-30T20:24:21.170Z,15.10
2019-04-30T20:26:50.216Z,15.00
2019-04-30T20:29:15.673Z,15.00
2019-04-30T20:34:29.318Z,14.80
2019-04-30T20:36:55.961Z,14.80
2019-04-30T20:39:24.141Z,14.70
2019-04-30T20:41:50.703Z,14.60
2019-04-30T20:44:18.914Z,14.60
2019-04-30T20:46:45.141Z,14.50
2019-04-30T20:49:11.597Z,14.40
2019-04-30T20:51:40.151Z,14.40
2019-04-30T20:54:06.082Z,14.40
2019-04-30T20:56:32.616Z,14.40
2019-04-30T20:59:04.411Z,14.30
2019-04-30T21:01:29.392Z,14.20
2019-04-30T21:03:55.850Z,14.20
2019-04-30T21:06:22.097Z,14.20
2019-04-30T21:08:48.345Z,14.20
2019-04-30T21:11:14.600Z,14.10
2019-04-30T21:13:41.833Z,14.10
2019-04-30T21:16:08.177Z,14.00
2019-04-30T21:18:34.437Z,14.00
2019-04-30T21:21:00.670Z,13.90
2019-04-30T21:23:27.005Z,13.90
2019-04-30T21:25:53.225Z,13.90
2019-04-30T21:28:19.807Z,13.80
2019-04-30T21:30:46.173Z,13.70
2019-04-30T21:33:20.139Z,13.70
2019-04-30T21:35:51.469Z,13.70
2019-04-30T21:38:19.377Z,13.60
2019-04-30T21:40:45.938Z,13.60
2019-04-30T21:43:12.251Z,13.60
2019-04-30T21:45:39.855Z,13.40
2019-04-30T21:48:06.434Z,13.30
2019-04-30T21:50:32.873Z,13.30
2019-04-30T21:52:59.699Z,13.20
2019-04-30T21:55:26.284Z,13.10
2019-04-30T21:57:52.516Z,13.10
2019-04-30T22:00:36.118Z,13.00
2019-04-30T22:03:05.849Z,12.90
2019-04-30T22:05:32.170Z,12.90
2019-04-30T22:07:59.160Z,12.90
2019-04-30T22:10:25.573Z,12.80
2019-04-30T22:12:52.010Z,12.70
2019-04-30T22:15:18.405Z,12.70
2019-04-30T22:17:44.638Z,12.70
2019-04-30T22:20:11.263Z,12.60
2019-04-30T22:22:39.136Z,12.50
2019-04-30T22:25:05.837Z,12.50
2019-04-30T22:27:32.397Z,12.40
2019-04-30T22:29:58.678Z,12.40
2019-04-30T22:32:25.010Z,12.30
2019-04-30T22:34:53.167Z,12.30
2019-04-30T22:37:19.707Z,12.20
2019-04-30T22:40:00.205Z,12.20
2019-04-30T22:42:29.791Z,12.20
2019-04-30T22:44:56.495Z,12.10
2019-04-30T22:47:22.721Z,12.00
2019-04-30T22:49:49.157Z,12.00
2019-04-30T22:52:15.504Z,12.00
2019-04-30T22:54:41.738Z,12.10
2019-04-30T22:57:08.150Z,12.00
2019-04-30T22:59:34.372Z,12.00
2019-04-30T23:02:02.705Z,11.80
2019-04-30T23:04:30.937Z,11.80
2019-04-30T23:06:57.161Z,11.80
2019-04-30T23:09:23.493Z,11.70
2019-04-30T23:11:49.736Z,11.60
2019-04-30T23:14:16.362Z,11.60
2019-04-30T23:16:42.689Z,11.50
2019-04-30T23:19:10.212Z,11.40
2019-04-30T23:21:36.741Z,11.40
2019-04-30T23:24:02.970Z,11.30
2019-04-30T23:26:29.196Z,11.30
2019-04-30T23:28:55.534Z,11.20
2019-04-30T23:31:21.912Z,11.30
2019-04-30T23:33:48.169Z,11.20
2019-04-30T23:36:14.376Z,11.20
2019-04-30T23:38:40.609Z,11.20
2019-04-30T23:41:06.877Z,11.20
2019-04-30T23:43:33.197Z,11.30
2019-04-30T23:45:59.450Z,11.30
2019-04-30T23:48:25.785Z,11.40
2019-04-30T23:50:52.010Z,11.50
2019-04-30T23:53:18.229Z,11.40
2019-04-30T23:55:44.469Z,11.40
2019-04-30T23:58:10.762Z,11.40
